Wetterdaten: Woche 15.06.09 - 21.06.09 (KW25)
Datum Zeit Temperatur Luftfeuchte Luftdruck Niederschlag Windrichtung Wind
15.06.2009 00:00 18,7 C 77 % 1017,6 hPa 0,0 l/m SW 6,2 km/h (2 Bft)
15.06.2009 01:00 17,5 C 86 % 1017,4 hPa 0,0 l/m NW 3,1 km/h (1 Bft)
15.06.2009 02:00 16,9 C 91 % 1017,4 hPa 0,0 l/m W-SW 4,0 km/h (1 Bft)
15.06.2009 03:00 16,8 C 93 % 1017,4 hPa 0,2 l/m S-SW 6,5 km/h (2 Bft)
15.06.2009 04:00 16,6 C 94 % 1016,9 hPa 0,0 l/m S-SW 11,0 km/h (2 Bft)
15.06.2009 05:00 16,6 C 94 % 1016,5 hPa 0,0 l/m S-SW 15,3 km/h (3 Bft)
15.06.2009 06:00 16,6 C 94 % 1016,6 hPa 0,0 l/m S-SW 14,9 km/h (3 Bft)
15.06.2009 07:00 17,1 C 92 % 1016,5 hPa 0,0 l/m S-SW 14,2 km/h (3 Bft)
15.06.2009 08:00 18,1 C 88 % 1016,3 hPa 0,0 l/m S-SW 16,5 km/h (3 Bft)
15.06.2009 09:00 18,3 C 88 % 1016,3 hPa 0,2 l/m W-SW 10,5 km/h (2 Bft)
15.06.2009 10:00 17,5 C 92 % 1016,4 hPa 0,8 l/m SW 15,2 km/h (3 Bft)
15.06.2009 11:00 17,6 C 95 % 1015,6 hPa 0,6 l/m S 10,9 km/h (2 Bft)
15.06.2009 12:00 17,4 C 94 % 1015,2 hPa 0,4 l/m SW 12,3 km/h (3 Bft)
15.06.2009 13:00 17,9 C 93 % 1014,9 hPa 0,2 l/m SW 7,1 km/h (2 Bft)
15.06.2009 14:00 17,8 C 93 % 1015,3 hPa 0,6 l/m W 10,5 km/h (2 Bft)
15.06.2009 15:00 18,7 C 91 % 1014,6 hPa 0,2 l/m W-SW 13,2 km/h (3 Bft)
15.06.2009 16:00 20,6 C 83 % 1013,5 hPa 0,0 l/m SW 17,7 km/h (3 Bft)
15.06.2009 17:00 21,5 C 73 % 1011,7 hPa 0,0 l/m W-SW 21,8 km/h (4 Bft)
15.06.2009 18:00 20,7 C 82 % 1011,0 hPa 0,0 l/m W-SW 13,9 km/h (3 Bft)
15.06.2009 19:00 20,2 C 82 % 1011,4 hPa 0,0 l/m W 7,6 km/h (2 Bft)
15.06.2009 20:00 20,1 C 77 % 1011,8 hPa 0,0 l/m W 15,4 km/h (3 Bft)
15.06.2009 21:00 19,4 C 80 % 1012,1 hPa 0,0 l/m W 11,1 km/h (2 Bft)
15.06.2009 22:00 18,7 C 84 % 1012,9 hPa 0,2 l/m W-SW 15,7 km/h (3 Bft)
15.06.2009 23:00 17,1 C 89 % 1013,9 hPa 0,8 l/m W 15,3 km/h (3 Bft)
16.06.2009 00:00 15,9 C 92 % 1015,1 hPa 0,6 l/m SW 15,4 km/h (3 Bft)
16.06.2009 01:00 15,4 C 95 % 1015,4 hPa 0,4 l/m W-SW 11,8 km/h (2 Bft)
16.06.2009 02:00 15,3 C 95 % 1015,7 hPa 0,4 l/m W-SW 9,8 km/h (2 Bft)
16.06.2009 03:00 15,0 C 95 % 1015,5 hPa 0,0 l/m W-SW 9,9 km/h (2 Bft)
16.06.2009 04:00 15,0 C 95 % 1015,5 hPa 0,2 l/m W-SW 8,2 km/h (2 Bft)
16.06.2009 05:00 15,0 C 96 % 1015,7 hPa 0,2 l/m W 10,6 km/h (2 Bft)
16.06.2009 06:00 15,0 C 96 % 1016,0 hPa 0,2 l/m W-SW 12,4 km/h (3 Bft)
16.06.2009 07:00 15,4 C 95 % 1016,8 hPa 0,2 l/m SW 12,6 km/h (3 Bft)
16.06.2009 08:00 16,0 C 87 % 1017,7 hPa 0,0 l/m W-NW 17,8 km/h (3 Bft)
16.06.2009 09:00 17,4 C 76 % 1018,6 hPa 0,0 l/m NW 22,4 km/h (4 Bft)
16.06.2009 10:00 18,4 C 71 % 1019,2 hPa 0,0 l/m W-NW 22,8 km/h (4 Bft)
16.06.2009 11:00 19,6 C 60 % 1019,5 hPa 0,0 l/m NW 25,3 km/h (4 Bft)
16.06.2009 12:00 20,2 C 52 % 1020,0 hPa 0,0 l/m W 21,4 km/h (4 Bft)
16.06.2009 13:00 20,6 C 51 % 1020,0 hPa 0,0 l/m W-NW 20,5 km/h (4 Bft)
16.06.2009 14:00 20,4 C 56 % 1020,3 hPa 0,0 l/m N-NW 19,7 km/h (3 Bft)
16.06.2009 15:00 20,8 C 54 % 1020,4 hPa 0,0 l/m N-NW 20,5 km/h (4 Bft)
16.06.2009 16:00 21,0 C 51 % 1020,2 hPa 0,0 l/m N-NW 20,9 km/h (4 Bft)
16.06.2009 17:00 20,0 C 53 % 1020,4 hPa 0,0 l/m NW 18,0 km/h (3 Bft)
16.06.2009 18:00 19,6 C 51 % 1020,6 hPa 0,0 l/m NW 16,6 km/h (3 Bft)
16.06.2009 19:00 19,2 C 53 % 1021,0 hPa 0,0 l/m N 14,9 km/h (3 Bft)
16.06.2009 20:00 17,9 C 56 % 1021,8 hPa 0,0 l/m N 11,8 km/h (2 Bft)
16.06.2009 21:00 16,5 C 62 % 1022,5 hPa 0,0 l/m N-NO 6,4 km/h (2 Bft)
16.06.2009 22:00 14,3 C 73 % 1023,4 hPa 0,0 l/m N-NO 3,3 km/h (1 Bft)
16.06.2009 23:00 12,9 C 80 % 1023,6 hPa 0,0 l/m N-NO 2,1 km/h (1 Bft)
17.06.2009 00:00 12,3 C 84 % 1023,5 hPa 0,0 l/m N-NO 1,2 km/h (1 Bft)
17.06.2009 01:00 11,3 C 86 % 1023,4 hPa 0,0 l/m N 0,9 km/h (0 Bft)
17.06.2009 02:00 10,8 C 87 % 1023,4 hPa 0,0 l/m N 0,0 km/h (0 Bft)
17.06.2009 03:00 10,2 C 89 % 1023,2 hPa 0,0 l/m N 0,4 km/h (0 Bft)
17.06.2009 04:00 9,8 C 90 % 1023,0 hPa 0,0 l/m N-NO 2,9 km/h (1 Bft)
17.06.2009 05:00 9,7 C 90 % 1023,0 hPa 0,0 l/m N 3,7 km/h (1 Bft)
17.06.2009 06:00 10,4 C 88 % 1022,9 hPa 0,0 l/m N 4,9 km/h (1 Bft)
17.06.2009 07:00 12,1 C 83 % 1022,7 hPa 0,0 l/m NO 5,2 km/h (1 Bft)
17.06.2009 08:00 14,8 C 73 % 1022,3 hPa 0,0 l/m O-NO 8,7 km/h (2 Bft)
17.06.2009 09:00 17,4 C 60 % 1021,9 hPa 0,0 l/m O-SO 14,2 km/h (3 Bft)
17.06.2009 10:00 18,9 C 54 % 1021,1 hPa 0,0 l/m NO 16,4 km/h (3 Bft)
17.06.2009 11:00 20,1 C 50 % 1020,9 hPa 0,0 l/m NO 16,4 km/h (3 Bft)
17.06.2009 12:00 21,2 C 46 % 1020,8 hPa 0,0 l/m O-NO 15,3 km/h (3 Bft)
17.06.2009 13:00 22,1 C 44 % 1020,5 hPa 0,0 l/m O 14,5 km/h (3 Bft)
17.06.2009 14:00 22,8 C 42 % 1020,0 hPa 0,0 l/m O-SO 12,8 km/h (3 Bft)
17.06.2009 15:00 23,6 C 40 % 1019,6 hPa 0,0 l/m SO 10,7 km/h (2 Bft)
17.06.2009 16:00 24,1 C 38 % 1019,1 hPa 0,0 l/m O-SO 9,3 km/h (2 Bft)
17.06.2009 17:00 24,1 C 37 % 1018,8 hPa 0,0 l/m SW 6,5 km/h (2 Bft)
17.06.2009 18:00 24,2 C 37 % 1018,2 hPa 0,0 l/m SO 6,9 km/h (2 Bft)
17.06.2009 19:00 23,3 C 41 % 1017,8 hPa 0,0 l/m S 4,9 km/h (1 Bft)
17.06.2009 20:00 20,6 C 58 % 1017,5 hPa 0,0 l/m W-NW 3,9 km/h (1 Bft)
17.06.2009 21:00 17,7 C 68 % 1017,6 hPa 0,0 l/m W-NW 1,5 km/h (1 Bft)
17.06.2009 22:00 15,6 C 77 % 1018,0 hPa 0,0 l/m N 0,0 km/h (0 Bft)
17.06.2009 23:00 14,3 C 79 % 1018,2 hPa 0,0 l/m N 0,0 km/h (0 Bft)
18.06.2009 00:00 13,6 C 82 % 1018,3 hPa 0,0 l/m N 0,3 km/h (0 Bft)
18.06.2009 01:00 13,2 C 86 % 1018,3 hPa 0,0 l/m N 0,5 km/h (0 Bft)
18.06.2009 02:00 12,7 C 89 % 1018,1 hPa 0,0 l/m N 1,2 km/h (1 Bft)
18.06.2009 03:00 12,4 C 88 % 1018,2 hPa 0,0 l/m N 1,1 km/h (0 Bft)
18.06.2009 04:00 12,7 C 86 % 1018,3 hPa 0,0 l/m N 2,4 km/h (1 Bft)
18.06.2009 05:00 12,6 C 88 % 1018,3 hPa 0,0 l/m W-NW 3,7 km/h (1 Bft)
18.06.2009 06:00 13,3 C 89 % 1018,2 hPa 0,0 l/m W-NW 1,9 km/h (1 Bft)
18.06.2009 07:00 16,1 C 82 % 1018,4 hPa 0,0 l/m W-NW 3,9 km/h (1 Bft)
18.06.2009 08:00 19,0 C 76 % 1018,8 hPa 0,0 l/m W-NW 6,1 km/h (2 Bft)
18.06.2009 09:00 21,6 C 69 % 1018,5 hPa 0,0 l/m S-SW 11,3 km/h (2 Bft)
18.06.2009 10:00 23,3 C 66 % 1018,2 hPa 0,0 l/m S 17,2 km/h (3 Bft)
18.06.2009 11:00 24,8 C 58 % 1018,0 hPa 0,0 l/m W 22,0 km/h (4 Bft)
18.06.2009 12:00 25,6 C 57 % 1017,6 hPa 0,0 l/m W-SW 24,1 km/h (4 Bft)
18.06.2009 13:00 26,1 C 57 % 1017,1 hPa 0,0 l/m W-SW 23,7 km/h (4 Bft)
18.06.2009 14:00 26,3 C 56 % 1016,5 hPa 0,0 l/m SW 27,0 km/h (4 Bft)
18.06.2009 15:00 26,9 C 56 % 1015,9 hPa 0,0 l/m SW 24,5 km/h (4 Bft)
18.06.2009 16:00 27,4 C 53 % 1015,4 hPa 0,0 l/m W-SW 26,0 km/h (4 Bft)
18.06.2009 17:00 27,7 C 51 % 1014,7 hPa 0,0 l/m W-SW 22,1 km/h (4 Bft)
18.06.2009 18:00 27,2 C 51 % 1014,1 hPa 0,0 l/m W-SW 16,9 km/h (3 Bft)
18.06.2009 19:00 26,3 C 56 % 1014,0 hPa 0,0 l/m W-SW 13,6 km/h (3 Bft)
18.06.2009 20:00 25,0 C 60 % 1013,8 hPa 0,0 l/m W-SW 6,7 km/h (2 Bft)
18.06.2009 21:00 23,1 C 71 % 1013,9 hPa 0,0 l/m W 4,5 km/h (1 Bft)
18.06.2009 22:00 21,0 C 77 % 1014,1 hPa 0,0 l/m NW 3,3 km/h (1 Bft)
18.06.2009 23:00 20,3 C 75 % 1014,4 hPa 0,0 l/m NW 6,0 km/h (2 Bft)
19.06.2009 00:00 19,0 C 83 % 1014,6 hPa 0,0 l/m O-SO 2,1 km/h (1 Bft)
19.06.2009 01:00 18,2 C 87 % 1014,2 hPa 0,0 l/m N 0,7 km/h (0 Bft)
19.06.2009 02:00 18,5 C 88 % 1013,7 hPa 0,0 l/m O-NO 1,7 km/h (1 Bft)
19.06.2009 03:00 18,4 C 89 % 1013,6 hPa 0,0 l/m O 2,8 km/h (1 Bft)
19.06.2009 04:00 18,6 C 90 % 1013,3 hPa 0,0 l/m W 4,9 km/h (1 Bft)
19.06.2009 05:00 17,7 C 93 % 1013,6 hPa 10,0 l/m N-NW 9,7 km/h (2 Bft)
19.06.2009 06:00 16,5 C 96 % 1014,1 hPa 0,2 l/m N-NW 5,7 km/h (1 Bft)
19.06.2009 07:00 17,0 C 95 % 1014,3 hPa 0,0 l/m W 7,5 km/h (2 Bft)
19.06.2009 08:00 17,3 C 94 % 1014,7 hPa 0,0 l/m W-SW 2,4 km/h (1 Bft)
19.06.2009 09:00 18,2 C 92 % 1014,8 hPa 0,0 l/m SW 7,9 km/h (2 Bft)
19.06.2009 10:00 18,5 C 87 % 1014,7 hPa 0,0 l/m N 10,4 km/h (2 Bft)
19.06.2009 11:00 15,0 C 92 % 1015,2 hPa 3,4 l/m N-NO 20,0 km/h (4 Bft)
19.06.2009 12:00 13,6 C 93 % 1015,8 hPa 1,6 l/m N-NO 14,1 km/h (3 Bft)
19.06.2009 13:00 14,1 C 93 % 1016,2 hPa 0,2 l/m NO 3,9 km/h (1 Bft)
19.06.2009 14:00 13,5 C 91 % 1016,3 hPa 1,8 l/m N 9,8 km/h (2 Bft)
19.06.2009 15:00 13,6 C 92 % 1016,6 hPa 0,8 l/m S-SW 6,0 km/h (2 Bft)
19.06.2009 16:00 13,9 C 94 % 1017,0 hPa 0,0 l/m SW 6,9 km/h (2 Bft)
19.06.2009 17:00 14,0 C 94 % 1016,9 hPa 0,4 l/m SW 10,0 km/h (2 Bft)
19.06.2009 18:00 13,6 C 96 % 1017,3 hPa 4,6 l/m SW 7,5 km/h (2 Bft)
19.06.2009 19:00 13,5 C 97 % 1018,0 hPa 9,6 l/m S 7,9 km/h (2 Bft)
19.06.2009 20:00 12,9 C 96 % 1018,6 hPa 2,0 l/m SW 6,4 km/h (2 Bft)
19.06.2009 21:00 12,6 C 95 % 1019,1 hPa 0,0 l/m W 9,0 km/h (2 Bft)
19.06.2009 22:00 12,4 C 95 % 1019,5 hPa 0,0 l/m W 6,1 km/h (2 Bft)
19.06.2009 23:00 12,4 C 95 % 1019,7 hPa 0,0 l/m W 4,0 km/h (1 Bft)
20.06.2009 00:00 12,3 C 96 % 1019,8 hPa 0,0 l/m W 2,8 km/h (1 Bft)
20.06.2009 01:00 11,9 C 96 % 1019,8 hPa 0,2 l/m W 1,9 km/h (1 Bft)
20.06.2009 02:00 11,6 C 96 % 1019,8 hPa 0,0 l/m N 2,5 km/h (1 Bft)
20.06.2009 03:00 11,1 C 97 % 1019,7 hPa 0,0 l/m W 3,6 km/h (1 Bft)
20.06.2009 04:00 11,1 C 97 % 1019,5 hPa 0,0 l/m W 2,9 km/h (1 Bft)
20.06.2009 05:00 10,9 C 98 % 1019,6 hPa 0,0 l/m W 2,8 km/h (1 Bft)
20.06.2009 06:00 10,9 C 98 % 1019,6 hPa 0,0 l/m W 2,4 km/h (1 Bft)
20.06.2009 07:00 11,4 C 96 % 1019,9 hPa 0,0 l/m W 1,3 km/h (1 Bft)
20.06.2009 08:00 12,1 C 90 % 1019,8 hPa 0,0 l/m N-NW 5,6 km/h (1 Bft)
20.06.2009 09:00 13,0 C 84 % 1019,7 hPa 0,0 l/m O-NO 7,8 km/h (2 Bft)
20.06.2009 10:00 13,8 C 80 % 1019,8 hPa 0,0 l/m NO 7,4 km/h (2 Bft)
20.06.2009 11:00 14,7 C 74 % 1019,9 hPa 0,0 l/m NO 8,6 km/h (2 Bft)
20.06.2009 12:00 15,5 C 67 % 1019,6 hPa 0,0 l/m O-NO 8,2 km/h (2 Bft)
20.06.2009 13:00 15,9 C 63 % 1019,3 hPa 0,0 l/m O-NO 8,7 km/h (2 Bft)
20.06.2009 14:00 16,1 C 61 % 1019,0 hPa 0,0 l/m NO 16,5 km/h (3 Bft)
20.06.2009 15:00 16,6 C 58 % 1018,6 hPa 0,0 l/m NO 12,9 km/h (3 Bft)
20.06.2009 16:00 16,7 C 54 % 1018,4 hPa 0,0 l/m O-NO 10,1 km/h (2 Bft)
20.06.2009 17:00 15,2 C 66 % 1018,5 hPa 0,0 l/m W-SW 9,7 km/h (2 Bft)
20.06.2009 18:00 13,0 C 82 % 1018,7 hPa 0,2 l/m W-SW 8,3 km/h (2 Bft)
20.06.2009 19:00 12,5 C 83 % 1018,8 hPa 0,0 l/m NW 4,5 km/h (1 Bft)
20.06.2009 20:00 11,8 C 88 % 1019,0 hPa 0,4 l/m O-SO 4,3 km/h (1 Bft)
20.06.2009 21:00 11,2 C 88 % 1019,4 hPa 0,0 l/m S 5,3 km/h (1 Bft)
20.06.2009 22:00 10,7 C 90 % 1019,8 hPa 0,0 l/m SW 4,9 km/h (1 Bft)
20.06.2009 23:00 10,5 C 91 % 1019,8 hPa 0,0 l/m NW 1,3 km/h (1 Bft)
21.06.2009 00:00 10,0 C 92 % 1019,6 hPa 0,2 l/m N-NW 7,2 km/h (2 Bft)
21.06.2009 01:00 10,2 C 92 % 1019,6 hPa 0,0 l/m N-NW 7,4 km/h (2 Bft)
21.06.2009 02:00 10,7 C 90 % 1019,3 hPa 0,0 l/m N-NW 8,6 km/h (2 Bft)
21.06.2009 03:00 10,6 C 88 % 1019,2 hPa 0,0 l/m N 6,5 km/h (2 Bft)
21.06.2009 04:00 10,3 C 90 % 1019,1 hPa 0,0 l/m N 4,9 km/h (1 Bft)
21.06.2009 05:00 9,2 C 91 % 1019,3 hPa 0,0 l/m N 2,8 km/h (1 Bft)
21.06.2009 06:00 9,2 C 91 % 1019,6 hPa 0,0 l/m N 7,1 km/h (2 Bft)
21.06.2009 07:00 10,4 C 87 % 1019,7 hPa 0,0 l/m N 7,2 km/h (2 Bft)
21.06.2009 08:00 11,5 C 84 % 1019,9 hPa 0,0 l/m N-NO 8,2 km/h (2 Bft)
21.06.2009 09:00 13,5 C 72 % 1019,9 hPa 0,0 l/m O-NO 9,0 km/h (2 Bft)
21.06.2009 10:00 13,7 C 71 % 1020,0 hPa 0,0 l/m N-NO 11,6 km/h (2 Bft)
21.06.2009 11:00 13,9 C 72 % 1020,0 hPa 0,0 l/m N 12,1 km/h (2 Bft)
21.06.2009 12:00 14,7 C 63 % 1019,7 hPa 0,0 l/m N-NO 10,9 km/h (2 Bft)
21.06.2009 13:00 14,7 C 66 % 1019,2 hPa 0,0 l/m N-NO 11,7 km/h (2 Bft)
21.06.2009 14:00 14,6 C 69 % 1018,8 hPa 0,0 l/m SW 7,9 km/h (2 Bft)
21.06.2009 15:00 14,5 C 69 % 1018,7 hPa 0,0 l/m SW 13,2 km/h (3 Bft)
21.06.2009 16:00 16,0 C 64 % 1018,3 hPa 0,0 l/m SW 13,8 km/h (3 Bft)
21.06.2009 17:00 15,3 C 69 % 1018,3 hPa 0,0 l/m W-SW 12,1 km/h (2 Bft)
21.06.2009 18:00 15,2 C 68 % 1018,2 hPa 0,0 l/m N-NO 9,0 km/h (2 Bft)
21.06.2009 19:00 14,8 C 70 % 1018,1 hPa 0,0 l/m SW 11,4 km/h (2 Bft)
21.06.2009 20:00 13,1 C 79 % 1018,2 hPa 0,0 l/m SW 11,9 km/h (2 Bft)
21.06.2009 21:00 11,8 C 83 % 1018,7 hPa 0,2 l/m W-NW 15,0 km/h (3 Bft)
21.06.2009 22:00 10,8 C 89 % 1019,2 hPa 0,4 l/m N 7,9 km/h (2 Bft)
21.06.2009 23:00 10,4 C 93 % 1019,2 hPa 0,2 l/m N 4,8 km/h (1 Bft)
Min-Datum _ 21.06.09 17.06.09 15.06.09 - - 15.06.09
_ Min-Zeit 05:55 17:20 18:35 - - 01:50
Minimum _ 8,7 C 35 % 1010,9 hPa - - 0,0 km/h (0 Bft)
Max-Datum _ 18.06.09 20.06.09 17.06.09 19.06.09 - 18.06.09
_ Max-Zeit 16:45 04:45 00:00 05:45 - 16:50
Maximum _ 27,8 C 98 % 1023,7 hPa 10,0 l/m - 37,0 km/h
SW (5 Bft)
Durchschnitt _ 16,4 C 78 % 1018,0 hPa #42,8 l/m W-SW 9,6 km/h (2 Bft)